Time;durP1;ratioP1;P1;durP2;ratioP2;P2;SDS_P1;SDS_P2;PMS_P1;PMS_P2;Temp;Humidity;BMP_temperature;BMP_pressure;BME280_temperature;BME280_humidity;BME280_pressure;Samples;Min_cycle;Max_cycle;Signal;HPM_P1;HPM_P2
2022/12/26 00:01:59;;;;;;;58.20;12.98;;;;;;;;;;5006002;28;20472;-91
2022/12/26 00:04:25;;;;;;;75.75;16.35;;;;;;;;;;4993581;28;20490;-93
2022/12/26 00:06:51;;;;;;;55.40;14.13;;;;;;;;;;4989633;28;20030;-92
2022/12/26 00:09:17;;;;;;;74.05;17.00;;;;;;;;;;4984717;28;20038;-92
2022/12/26 00:11:43;;;;;;;61.55;14.13;;;;;;;;;;4989820;28;20030;-93
2022/12/26 00:14:11;;;;;;;72.97;13.77;;;;;;;;;;5001092;28;20457;-92
2022/12/26 00:16:38;;;;;;;41.25;11.45;;;;;;;;;;5003293;28;20037;-91
2022/12/26 00:19:11;;;;;;;50.38;11.65;;;;;;;;;;5002934;28;20037;-93
2022/12/26 00:21:37;;;;;;;57.67;12.57;;;;;;;;;;4974546;28;20038;-91
2022/12/26 00:24:04;;;;;;;40.75;11.68;;;;;;;;;;4986418;28;20041;-93
2022/12/26 00:26:31;;;;;;;51.50;12.32;;;;;;;;;;4990033;28;20158;-93
2022/12/26 00:28:57;;;;;;;55.85;13.82;;;;;;;;;;5001106;28;20168;-93
2022/12/26 00:31:25;;;;;;;66.43;15.35;;;;;;;;;;5001661;28;20042;-92
2022/12/26 00:33:51;;;;;;;81.30;15.98;;;;;;;;;;5007397;28;20026;-93
2022/12/26 00:36:22;;;;;;;74.45;14.95;;;;;;;;;;4992878;28;20030;-93
2022/12/26 00:38:48;;;;;;;70.60;15.18;;;;;;;;;;4988269;28;20034;-93
2022/12/26 00:41:16;;;;;;;70.55;15.75;;;;;;;;;;5002203;28;20040;-93
2022/12/26 00:43:42;;;;;;;74.95;16.63;;;;;;;;;;5006368;28;20072;-91
2022/12/26 00:46:08;;;;;;;70.43;15.00;;;;;;;;;;4980048;28;20053;-94
2022/12/26 00:48:34;;;;;;;45.40;12.02;;;;;;;;;;5005205;28;20040;-92
2022/12/26 00:51:00;;;;;;;58.65;13.98;;;;;;;;;;5005296;28;20026;-93
2022/12/26 00:53:27;;;;;;;51.30;12.35;;;;;;;;;;4978755;28;20113;-91
2022/12/26 00:55:54;;;;;;;73.95;15.10;;;;;;;;;;5005069;28;20048;-91
2022/12/26 00:58:20;;;;;;;63.85;14.73;;;;;;;;;;4991294;28;20033;-93
2022/12/26 01:00:47;;;;;;;64.40;14.30;;;;;;;;;;4991227;28;20095;-92
2022/12/26 01:03:13;;;;;;;62.10;13.52;;;;;;;;;;5003296;28;20034;-91
2022/12/26 01:05:40;;;;;;;63.38;15.32;;;;;;;;;;5012812;28;20038;-92
2022/12/26 01:08:07;;;;;;;74.35;13.73;;;;;;;;;;4995627;28;20026;-93
2022/12/26 01:10:33;;;;;;;49.08;11.80;;;;;;;;;;4977377;28;20033;-93
2022/12/26 01:12:59;;;;;;;84.03;16.58;;;;;;;;;;4989102;28;20049;-91
2022/12/26 01:15:25;;;;;;;76.68;15.85;;;;;;;;;;4976333;28;20083;-94
2022/12/26 01:17:51;;;;;;;54.03;12.43;;;;;;;;;;4989083;28;20038;-93
2022/12/26 01:20:17;;;;;;;76.28;14.82;;;;;;;;;;4977387;28;20405;-94
2022/12/26 01:22:43;;;;;;;72.35;16.77;;;;;;;;;;4990050;28;20479;-91
2022/12/26 01:25:10;;;;;;;77.53;18.60;;;;;;;;;;4988941;28;20101;-92
2022/12/26 01:27:36;;;;;;;86.72;16.25;;;;;;;;;;4974495;28;20053;-93
2022/12/26 01:30:02;;;;;;;97.43;19.88;;;;;;;;;;4972593;28;20116;-93
2022/12/26 01:32:28;;;;;;;76.70;16.23;;;;;;;;;;4971820;28;20040;-92
2022/12/26 01:34:55;;;;;;;65.40;16.70;;;;;;;;;;4973248;28;20157;-93
2022/12/26 01:37:24;;;;;;;42.75;10.07;;;;;;;;;;4985278;28;20098;-92
2022/12/26 01:39:51;;;;;;;82.03;17.50;;;;;;;;;;5003955;28;20038;-93
2022/12/26 01:42:19;;;;;;;74.47;16.85;;;;;;;;;;4969335;28;20486;-94
2022/12/26 01:45:00;;;;;;;70.45;13.70;;;;;;;;;;4989326;28;20529;-92
2022/12/26 01:47:37;;;;;;;90.22;18.30;;;;;;;;;;4998377;28;20033;-93
2022/12/26 01:50:04;;;;;;;71.85;14.90;;;;;;;;;;4991880;28;20120;-94
2022/12/26 01:52:35;;;;;;;74.95;16.83;;;;;;;;;;4990944;28;20046;-93
2022/12/26 01:55:02;;;;;;;78.10;15.30;;;;;;;;;;5009161;28;20104;-93
2022/12/26 01:57:31;;;;;;;78.57;15.15;;;;;;;;;;4993156;28;20490;-93
2022/12/26 01:59:57;;;;;;;65.50;11.85;;;;;;;;;;4994571;28;20050;-93
2022/12/26 02:02:26;;;;;;;60.03;15.50;;;;;;;;;;4995527;28;20024;-92
2022/12/26 02:07:40;;;;;;;48.97;9.40;;;;;;;;;;5007969;28;20052;-93
2022/12/26 02:10:08;;;;;;;74.50;15.48;;;;;;;;;;4984076;28;20481;-90
2022/12/26 02:12:42;;;;;;;77.20;14.82;;;;;;;;;;4990619;28;20049;-91
2022/12/26 02:15:13;;;;;;;65.72;14.75;;;;;;;;;;4993267;28;20018;-92
2022/12/26 02:17:40;;;;;;;58.83;13.80;;;;;;;;;;5001435;28;20030;-93
2022/12/26 02:20:23;;;;;;;57.38;12.43;;;;;;;;;;5003494;28;20022;-91
2022/12/26 02:22:59;;;;;;;28.88;8.15;;;;;;;;;;4998518;28;20184;-93
2022/12/26 02:25:44;;;;;;;52.70;11.82;;;;;;;;;;4991255;28;20026;-94
2022/12/26 02:28:13;;;;;;;15.82;5.65;;;;;;;;;;4997587;28;20022;-94
2022/12/26 02:31:02;;;;;;;59.83;10.85;;;;;;;;;;4993160;28;20030;-92
2022/12/26 02:33:28;;;;;;;40.78;10.35;;;;;;;;;;4990759;28;20027;-93
2022/12/26 02:36:00;;;;;;;44.65;10.63;;;;;;;;;;4992994;28;20045;-93
2022/12/26 02:38:49;;;;;;;44.72;9.93;;;;;;;;;;5002378;28;20445;-92
2022/12/26 02:41:15;;;;;;;38.80;9.98;;;;;;;;;;5002395;28;20034;-93
2022/12/26 02:43:56;;;;;;;56.75;13.18;;;;;;;;;;5008848;28;20057;-94
2022/12/26 02:49:31;;;;;;;50.67;12.48;;;;;;;;;;5006485;28;20068;-94
2022/12/26 03:15:01;;;;;;;40.40;11.35;;;;;;;;;;4993244;28;20037;-94
2022/12/26 03:17:33;;;;;;;50.67;13.45;;;;;;;;;;5008509;28;20490;-94
2022/12/26 03:20:02;;;;;;;30.52;9.93;;;;;;;;;;4995298;28;20497;-93
2022/12/26 03:22:31;;;;;;;27.60;9.25;;;;;;;;;;5004117;28;20041;-93
2022/12/26 03:27:47;;;;;;;47.97;12.90;;;;;;;;;;5006440;28;20044;-92
2022/12/26 03:32:58;;;;;;;39.55;12.30;;;;;;;;;;5007773;28;20041;-92
2022/12/26 03:35:27;;;;;;;43.08;12.82;;;;;;;;;;4992943;28;20034;-92
2022/12/26 03:37:57;;;;;;;46.17;14.80;;;;;;;;;;4993950;28;20034;-94
2022/12/26 04:46:23;;;;;;;36.73;11.97;;;;;;;;;;4994551;28;20504;-94
2022/12/26 04:51:35;;;;;;;65.72;18.77;;;;;;;;;;5010759;28;20176;-93
2022/12/26 04:54:01;;;;;;;58.92;18.40;;;;;;;;;;5000755;28;20045;-93
2022/12/26 04:56:27;;;;;;;40.10;11.85;;;;;;;;;;5010455;28;20128;-91
2022/12/26 04:58:53;;;;;;;58.88;17.75;;;;;;;;;;4998822;28;20030;-92
2022/12/26 05:09:34;;;;;;;44.38;16.38;;;;;;;;;;5007517;28;20065;-94
2022/12/26 05:12:09;;;;;;;20.83;8.85;;;;;;;;;;4986661;28;20122;-92
2022/12/26 05:14:35;;;;;;;49.33;16.63;;;;;;;;;;5000803;28;20359;-92
2022/12/26 05:31:01;;;;;;;37.28;11.80;;;;;;;;;;5005784;28;20057;-93
2022/12/26 05:36:16;;;;;;;41.47;13.82;;;;;;;;;;4990614;28;20583;-93
2022/12/26 05:38:42;;;;;;;28.02;12.05;;;;;;;;;;4983884;28;20021;-92
2022/12/26 05:41:08;;;;;;;42.75;16.30;;;;;;;;;;4988911;28;20117;-92
2022/12/26 05:43:34;;;;;;;23.38;8.75;;;;;;;;;;5004097;28;20041;-93
2022/12/26 05:46:00;;;;;;;35.92;14.55;;;;;;;;;;4974059;28;20042;-92
2022/12/26 05:48:26;;;;;;;38.75;15.23;;;;;;;;;;4976170;28;20037;-92
2022/12/26 05:50:52;;;;;;;39.13;15.40;;;;;;;;;;4975989;28;20042;-91
2022/12/26 05:53:18;;;;;;;25.35;11.15;;;;;;;;;;4972245;28;20049;-93
2022/12/26 05:55:44;;;;;;;32.58;13.02;;;;;;;;;;4977132;28;20034;-92
2022/12/26 05:58:10;;;;;;;39.70;15.45;;;;;;;;;;5004031;28;20038;-92
2022/12/26 06:00:36;;;;;;;17.02;6.93;;;;;;;;;;4975485;28;20058;-93
2022/12/26 06:03:02;;;;;;;32.17;13.27;;;;;;;;;;5003167;28;20560;-93
2022/12/26 06:05:28;;;;;;;18.65;6.68;;;;;;;;;;4986458;28;20048;-94
2022/12/26 06:08:01;;;;;;;37.17;14.07;;;;;;;;;;4979370;28;20037;-93
2022/12/26 06:10:28;;;;;;;34.20;15.23;;;;;;;;;;4977058;28;20033;-93
2022/12/26 06:12:55;;;;;;;30.83;12.48;;;;;;;;;;4975489;28;20235;-93
2022/12/26 06:15:21;;;;;;;28.65;11.63;;;;;;;;;;4993619;28;20030;-92
2022/12/26 06:17:47;;;;;;;27.30;10.00;;;;;;;;;;4980268;28;20049;-93
2022/12/26 06:20:13;;;;;;;19.08;8.52;;;;;;;;;;4990029;28;20576;-93
2022/12/26 06:22:44;;;;;;;38.55;14.80;;;;;;;;;;4995597;28;20490;-92
2022/12/26 06:25:10;;;;;;;32.03;13.30;;;;;;;;;;4969247;28;20049;-93
2022/12/26 06:27:36;;;;;;;27.13;12.82;;;;;;;;;;4973710;28;20058;-92
2022/12/26 06:30:02;;;;;;;22.52;9.10;;;;;;;;;;4972598;28;20069;-93
2022/12/26 06:32:29;;;;;;;23.27;10.07;;;;;;;;;;4989872;28;20021;-93
2022/12/26 06:34:55;;;;;;;31.95;14.65;;;;;;;;;;4978442;28;20034;-93
2022/12/26 06:37:21;;;;;;;15.63;6.70;;;;;;;;;;4983044;28;20045;-92
2022/12/26 06:39:47;;;;;;;14.98;7.47;;;;;;;;;;4977415;28;20038;-94
2022/12/26 06:42:13;;;;;;;18.33;8.98;;;;;;;;;;4973074;28;20180;-93
2022/12/26 06:44:39;;;;;;;30.98;14.30;;;;;;;;;;4975878;28;20129;-93
2022/12/26 06:47:05;;;;;;;28.45;11.75;;;;;;;;;;4992911;28;20549;-94
2022/12/26 06:49:31;;;;;;;27.73;12.05;;;;;;;;;;4991010;28;20064;-91
2022/12/26 06:51:57;;;;;;;33.65;13.25;;;;;;;;;;4990205;28;20054;-91
2022/12/26 06:54:23;;;;;;;29.77;11.43;;;;;;;;;;4989458;28;20065;-93
2022/12/26 06:56:49;;;;;;;15.80;8.25;;;;;;;;;;4976212;28;20038;-93
2022/12/26 06:59:15;;;;;;;12.85;7.00;;;;;;;;;;4975959;28;22792;-93
2022/12/26 07:01:41;;;;;;;26.80;10.85;;;;;;;;;;4976479;28;20434;-93
2022/12/26 07:04:09;;;;;;;28.02;10.40;;;;;;;;;;4978387;28;20053;-93
2022/12/26 07:06:36;;;;;;;15.23;7.82;;;;;;;;;;4986543;28;20152;-93
2022/12/26 07:09:07;;;;;;;17.15;8.15;;;;;;;;;;5003743;28;20026;-94
2022/12/26 07:11:34;;;;;;;17.88;6.97;;;;;;;;;;5000760;28;20064;-93
2022/12/26 07:14:01;;;;;;;19.77;8.00;;;;;;;;;;5003676;28;20467;-93
2022/12/26 07:16:27;;;;;;;20.88;10.57;;;;;;;;;;4982311;28;20149;-92
2022/12/26 07:18:57;;;;;;;21.95;9.55;;;;;;;;;;4972140;28;20038;-93
2022/12/26 07:21:24;;;;;;;16.73;7.72;;;;;;;;;;4976762;28;20038;-93
2022/12/26 07:23:50;;;;;;;24.88;9.80;;;;;;;;;;5001987;28;20038;-93
2022/12/26 07:26:16;;;;;;;15.90;6.18;;;;;;;;;;4984959;28;20030;-92
2022/12/26 07:28:42;;;;;;;20.83;8.98;;;;;;;;;;4999301;28;20400;-91
2022/12/26 07:31:08;;;;;;;21.98;7.57;;;;;;;;;;4991863;28;20635;-91
2022/12/26 07:33:35;;;;;;;7.85;3.88;;;;;;;;;;4999952;28;20134;-92
2022/12/26 07:36:01;;;;;;;10.50;5.53;;;;;;;;;;4975833;28;20026;-92
2022/12/26 07:38:27;;;;;;;20.52;9.90;;;;;;;;;;4988947;28;20042;-92
2022/12/26 07:41:56;;;;;;;12.10;4.82;;;;;;;;;;5007901;28;20144;-92
2022/12/26 07:43:45;;;;;;;17.65;6.10;;;;;;;;;;5008493;28;20482;-92
2022/12/26 07:46:11;;;;;;;17.63;7.10;;;;;;;;;;4993733;28;20664;-92
2022/12/26 07:48:37;;;;;;;24.23;7.18;;;;;;;;;;5005566;28;20036;-94
2022/12/26 07:51:04;;;;;;;13.80;6.20;;;;;;;;;;4988028;28;20029;-93
2022/12/26 07:53:30;;;;;;;16.05;6.35;;;;;;;;;;5005819;28;20022;-92
2022/12/26 07:55:58;;;;;;;14.85;7.78;;;;;;;;;;4987631;28;20149;-92
2022/12/26 07:58:24;;;;;;;13.75;6.00;;;;;;;;;;4998633;28;20217;-93
2022/12/26 08:00:50;;;;;;;12.10;6.72;;;;;;;;;;4978618;28;20074;-94
2022/12/26 08:03:16;;;;;;;16.73;7.65;;;;;;;;;;4975323;28;20112;-93
2022/12/26 08:05:49;;;;;;;16.42;6.68;;;;;;;;;;4979644;28;20043;-93
2022/12/26 08:08:15;;;;;;;25.80;9.02;;;;;;;;;;4979768;28;20552;-93
2022/12/26 08:10:42;;;;;;;23.60;7.10;;;;;;;;;;4994223;28;20061;-93
2022/12/26 08:13:08;;;;;;;14.85;6.00;;;;;;;;;;4981587;28;20038;-93
2022/12/26 08:15:34;;;;;;;15.13;7.07;;;;;;;;;;4976417;28;20038;-94
2022/12/26 08:18:00;;;;;;;16.42;5.22;;;;;;;;;;5008925;28;20058;-93
2022/12/26 08:20:26;;;;;;;9.02;4.35;;;;;;;;;;4971574;28;20077;-93
2022/12/26 08:22:52;;;;;;;9.45;4.70;;;;;;;;;;4986649;28;20037;-93
2022/12/26 08:25:18;;;;;;;8.52;4.30;;;;;;;;;;4978926;28;20125;-94
2022/12/26 08:27:44;;;;;;;12.18;3.92;;;;;;;;;;4979267;28;20116;-94
2022/12/26 08:30:10;;;;;;;11.68;5.30;;;;;;;;;;4993567;28;20027;-93
2022/12/26 08:32:36;;;;;;;5.07;3.15;;;;;;;;;;5005057;28;20370;-94
2022/12/26 08:35:03;;;;;;;8.68;4.32;;;;;;;;;;4985323;28;20045;-93
2022/12/26 08:37:29;;;;;;;15.48;4.60;;;;;;;;;;4988863;28;20541;-93
2022/12/26 08:39:55;;;;;;;13.00;5.95;;;;;;;;;;4976366;28;20176;-93
2022/12/26 08:42:21;;;;;;;10.57;5.57;;;;;;;;;;4974886;28;20080;-93
2022/12/26 08:44:47;;;;;;;8.90;4.28;;;;;;;;;;5005856;28;20044;-93
2022/12/26 08:47:14;;;;;;;13.40;5.15;;;;;;;;;;5007089;28;20030;-94
2022/12/26 08:49:40;;;;;;;5.90;3.30;;;;;;;;;;4994410;28;20482;-95
2022/12/26 08:52:06;;;;;;;8.23;4.65;;;;;;;;;;4972727;28;20453;-94
2022/12/26 08:54:35;;;;;;;6.38;3.28;;;;;;;;;;4990449;28;20478;-94
2022/12/26 08:57:01;;;;;;;9.75;5.45;;;;;;;;;;4991529;28;20386;-94
2022/12/26 08:59:27;;;;;;;13.82;5.38;;;;;;;;;;4975934;28;20596;-95
2022/12/26 09:01:53;;;;;;;8.48;4.50;;;;;;;;;;4984291;28;20145;-94
2022/12/26 09:04:19;;;;;;;10.25;4.38;;;;;;;;;;4982838;28;20049;-94
2022/12/26 09:06:45;;;;;;;12.77;6.20;;;;;;;;;;4968548;28;20125;-93
2022/12/26 09:09:12;;;;;;;8.95;4.18;;;;;;;;;;4987403;28;20690;-93
2022/12/26 09:11:38;;;;;;;9.82;3.92;;;;;;;;;;5007365;28;20021;-93
2022/12/26 09:14:05;;;;;;;16.08;6.30;;;;;;;;;;4983363;28;20026;-93
2022/12/26 09:16:35;;;;;;;12.15;4.65;;;;;;;;;;4988236;28;20042;-93
2022/12/26 09:19:01;;;;;;;17.85;6.35;;;;;;;;;;4987052;28;20023;-92
2022/12/26 09:21:28;;;;;;;7.40;4.22;;;;;;;;;;5003508;28;21599;-94
2022/12/26 09:24:00;;;;;;;13.68;5.53;;;;;;;;;;4990078;28;20042;-94
2022/12/26 09:26:27;;;;;;;10.95;5.85;;;;;;;;;;4989217;28;20087;-94
2022/12/26 09:28:53;;;;;;;13.55;5.38;;;;;;;;;;5004344;28;20529;-94
2022/12/26 09:31:21;;;;;;;6.78;3.42;;;;;;;;;;4990246;28;20084;-94
2022/12/26 09:33:47;;;;;;;10.07;4.65;;;;;;;;;;4989083;28;20041;-93
2022/12/26 09:36:15;;;;;;;7.72;3.88;;;;;;;;;;5004520;28;20602;-94
2022/12/26 09:38:41;;;;;;;5.65;3.75;;;;;;;;;;4999343;28;20065;-94
2022/12/26 09:41:26;;;;;;;10.98;3.35;;;;;;;;;;5003535;28;20084;-94
2022/12/26 09:43:55;;;;;;;9.35;3.33;;;;;;;;;;4990918;28;20450;-94
2022/12/26 09:46:30;;;;;;;13.32;4.72;;;;;;;;;;5003151;28;20037;-95
2022/12/26 09:49:10;;;;;;;8.48;4.03;;;;;;;;;;4992549;28;20355;-93
2022/12/26 09:51:37;;;;;;;3.63;2.50;;;;;;;;;;4998670;28;20501;-94
2022/12/26 09:54:05;;;;;;;10.07;2.10;;;;;;;;;;4991807;28;20049;-93
2022/12/26 09:59:28;;;;;;;6.18;1.80;;;;;;;;;;5000829;28;20377;-94
2022/12/26 10:01:54;;;;;;;20.48;3.95;;;;;;;;;;5002422;28;20158;-94
2022/12/26 10:04:32;;;;;;;18.73;2.38;;;;;;;;;;4970327;28;20405;-93
2022/12/26 10:07:12;;;;;;;18.17;1.98;;;;;;;;;;4990078;28;20034;-94
2022/12/26 10:09:42;;;;;;;0.95;0.60;;;;;;;;;;5000438;28;20034;-93
2022/12/26 10:12:45;;;;;;;7.15;1.50;;;;;;;;;;4983601;28;20034;-93
2022/12/26 10:15:29;;;;;;;7.20;0.77;;;;;;;;;;4988354;28;20060;-94
2022/12/26 10:18:04;;;;;;;17.17;2.00;;;;;;;;;;4997761;28;20023;-91
2022/12/26 10:20:51;;;;;;;17.40;1.70;;;;;;;;;;5003245;28;20543;-91
2022/12/26 10:23:17;;;;;;;14.15;1.42;;;;;;;;;;4994707;28;20045;-92
2022/12/26 10:25:46;;;;;;;8.73;1.63;;;;;;;;;;4979611;28;20038;-91
2022/12/26 10:28:38;;;;;;;2.38;1.02;;;;;;;;;;4980518;28;20631;-91
2022/12/26 10:31:24;;;;;;;8.77;1.63;;;;;;;;;;4977531;28;20128;-92
2022/12/26 10:33:56;;;;;;;17.23;2.30;;;;;;;;;;4982219;28;20076;-92
2022/12/26 10:36:42;;;;;;;6.47;1.33;;;;;;;;;;4983846;28;20034;-92
2022/12/26 10:39:13;;;;;;;7.90;1.70;;;;;;;;;;4984985;28;20477;-92
2022/12/26 10:42:05;;;;;;;0.73;0.43;;;;;;;;;;4988365;28;20030;-91
2022/12/26 10:44:36;;;;;;;4.07;1.30;;;;;;;;;;5002376;28;20486;-92
2022/12/26 10:47:07;;;;;;;0.90;0.65;;;;;;;;;;4991312;28;20398;-91
2022/12/26 10:49:33;;;;;;;9.85;1.90;;;;;;;;;;5001446;28;20691;-92
2022/12/26 10:52:01;;;;;;;18.77;1.52;;;;;;;;;;4989102;28;20149;-92
2022/12/26 10:54:28;;;;;;;9.10;1.15;;;;;;;;;;4999406;28;20040;-92
2022/12/26 10:56:55;;;;;;;7.22;0.65;;;;;;;;;;5001232;28;20025;-92
2022/12/26 10:59:26;;;;;;;2.45;0.40;;;;;;;;;;5000421;28;20043;-93
2022/12/26 11:01:52;;;;;;;6.07;1.33;;;;;;;;;;4988878;28;20497;-92
2022/12/26 11:04:23;;;;;;;7.38;1.10;;;;;;;;;;4983240;28;20508;-91
2022/12/26 11:07:08;;;;;;;5.75;1.77;;;;;;;;;;4999591;28;20817;-92
2022/12/26 11:09:37;;;;;;;4.25;0.75;;;;;;;;;;4999913;28;20077;-91
2022/12/26 11:12:04;;;;;;;7.68;1.60;;;;;;;;;;4990657;28;20424;-91
2022/12/26 11:14:32;;;;;;;6.07;0.63;;;;;;;;;;4966872;28;20034;-92
2022/12/26 11:17:03;;;;;;;6.00;1.20;;;;;;;;;;4987272;28;20030;-93
2022/12/26 11:19:40;;;;;;;12.27;1.13;;;;;;;;;;5005247;28;20050;-93
2022/12/26 11:22:25;;;;;;;5.00;1.02;;;;;;;;;;5003056;28;20031;-92
2022/12/26 11:25:22;;;;;;;11.32;1.50;;;;;;;;;;4991458;28;20126;-93
2022/12/26 11:27:50;;;;;;;13.35;1.25;;;;;;;;;;4996164;28;20037;-93
2022/12/26 11:30:16;;;;;;;7.10;1.65;;;;;;;;;;5000161;28;20041;-93
2022/12/26 11:32:43;;;;;;;12.48;0.93;;;;;;;;;;4999731;28;20050;-92
2022/12/26 11:35:20;;;;;;;5.35;0.90;;;;;;;;;;5002125;28;20022;-92
2022/12/26 11:37:47;;;;;;;7.18;1.05;;;;;;;;;;5001506;28;20044;-92
2022/12/26 11:40:24;;;;;;;10.45;2.25;;;;;;;;;;5006587;28;20477;-93
2022/12/26 11:42:54;;;;;;;8.57;2.42;;;;;;;;;;5006425;28;20037;-93
2022/12/26 11:45:28;;;;;;;5.95;0.63;;;;;;;;;;5000181;28;20044;-94
2022/12/26 11:47:55;;;;;;;3.40;0.52;;;;;;;;;;5007270;28;20040;-93
2022/12/26 11:50:24;;;;;;;3.78;0.75;;;;;;;;;;4991329;28;20066;-92
2022/12/26 11:52:56;;;;;;;10.95;1.27;;;;;;;;;;4999007;28;20081;-92
2022/12/26 11:55:22;;;;;;;4.78;0.68;;;;;;;;;;5001397;28;20032;-92
2022/12/26 11:58:00;;;;;;;7.28;2.00;;;;;;;;;;4984368;28;20029;-93
2022/12/26 12:00:27;;;;;;;9.25;1.48;;;;;;;;;;4998083;28;20050;-92
2022/12/26 12:02:53;;;;;;;16.50;2.22;;;;;;;;;;4973458;28;20130;-93
2022/12/26 12:05:28;;;;;;;26.15;2.20;;;;;;;;;;4966964;28;20030;-93
2022/12/26 12:07:54;;;;;;;2.03;1.40;;;;;;;;;;4985095;28;20486;-92
2022/12/26 12:10:41;;;;;;;4.95;1.00;;;;;;;;;;4972973;28;20022;-92
2022/12/26 12:13:22;;;;;;;3.88;1.05;;;;;;;;;;4975153;28;20034;-93
2022/12/26 12:15:53;;;;;;;7.78;1.38;;;;;;;;;;4965111;28;20065;-91
2022/12/26 12:18:27;;;;;;;12.00;1.67;;;;;;;;;;4957473;28;20864;-92
2022/12/26 12:21:19;;;;;;;13.50;1.30;;;;;;;;;;4960303;28;20080;-93
2022/12/26 12:23:58;;;;;;;8.25;2.15;;;;;;;;;;4960378;28;20442;-93
2022/12/26 12:26:56;;;;;;;17.08;1.33;;;;;;;;;;4959952;28;20026;-93
2022/12/26 12:29:30;;;;;;;13.85;1.88;;;;;;;;;;4921848;28;20264;-93
2022/12/26 12:32:17;;;;;;;8.80;1.33;;;;;;;;;;4963394;28;20442;-92
2022/12/26 12:34:56;;;;;;;7.28;1.48;;;;;;;;;;4958967;28;20034;-93
2022/12/26 12:37:29;;;;;;;7.65;1.08;;;;;;;;;;4973025;28;20454;-91
2022/12/26 12:39:58;;;;;;;9.25;1.73;;;;;;;;;;4963656;28;20034;-93
2022/12/26 12:42:51;;;;;;;6.10;1.25;;;;;;;;;;4977749;28;20096;-92
2022/12/26 12:45:21;;;;;;;15.20;2.13;;;;;;;;;;4959336;28;20138;-92
2022/12/26 12:48:04;;;;;;;24.63;2.80;;;;;;;;;;4956397;28;20065;-91
2022/12/26 12:50:33;;;;;;;8.48;1.70;;;;;;;;;;4961905;28;20042;-91
2022/12/26 12:53:27;;;;;;;27.08;2.20;;;;;;;;;;4961605;28;20062;-92
2022/12/26 12:56:02;;;;;;;10.32;1.65;;;;;;;;;;4959538;28;20245;-91
2022/12/26 12:58:34;;;;;;;16.67;2.63;;;;;;;;;;4964083;28;20027;-92
2022/12/26 13:01:15;;;;;;;10.20;2.50;;;;;;;;;;4969774;28;20460;-93
2022/12/26 13:03:54;;;;;;;6.97;1.35;;;;;;;;;;4999069;28;20026;-91
2022/12/26 13:06:25;;;;;;;7.47;1.52;;;;;;;;;;5001641;28;20076;-93
2022/12/26 13:08:54;;;;;;;21.25;4.25;;;;;;;;;;4995967;28;20099;-91
2022/12/26 13:11:30;;;;;;;10.43;1.98;;;;;;;;;;4995430;28;20033;-89
2022/12/26 13:14:07;;;;;;;11.10;2.05;;;;;;;;;;4997390;28;20030;-91
2022/12/26 13:16:42;;;;;;;16.23;2.30;;;;;;;;;;4998974;28;20098;-93
2022/12/26 13:19:25;;;;;;;27.20;2.47;;;;;;;;;;4991595;28;20022;-93
2022/12/26 13:21:54;;;;;;;11.25;1.90;;;;;;;;;;5002742;28;20029;-92
2022/12/26 13:24:23;;;;;;;11.15;1.85;;;;;;;;;;4985630;28;20045;-89
2022/12/26 13:26:56;;;;;;;7.88;1.50;;;;;;;;;;4986780;28;20453;-90
2022/12/26 13:29:34;;;;;;;10.30;2.00;;;;;;;;;;4991445;28;20037;-91
2022/12/26 13:32:00;;;;;;;22.27;2.47;;;;;;;;;;4997397;28;20022;-91
2022/12/26 13:34:26;;;;;;;12.02;2.15;;;;;;;;;;5001385;28;20026;-91
2022/12/26 13:36:54;;;;;;;10.57;2.15;;;;;;;;;;4965723;28;20401;-91
2022/12/26 13:39:26;;;;;;;15.00;2.13;;;;;;;;;;4998259;28;20029;-91
2022/12/26 13:44:43;;;;;;;16.33;2.30;;;;;;;;;;5005293;28;20104;-91
2022/12/26 13:47:28;;;;;;;14.55;2.92;;;;;;;;;;4999033;28;20036;-91
2022/12/26 13:49:54;;;;;;;12.65;2.20;;;;;;;;;;5000683;28;20703;-91
2022/12/26 13:52:33;;;;;;;11.65;2.17;;;;;;;;;;4970941;28;20141;-91
2022/12/26 13:55:05;;;;;;;12.18;1.48;;;;;;;;;;4989430;28;20060;-91
2022/12/26 13:57:43;;;;;;;11.75;1.80;;;;;;;;;;4990184;28;20042;-90
2022/12/26 14:00:22;;;;;;;13.68;2.10;;;;;;;;;;4985566;28;20045;-91
2022/12/26 14:03:03;;;;;;;13.13;2.10;;;;;;;;;;5001457;28;20052;-91
2022/12/26 14:05:36;;;;;;;28.92;2.72;;;;;;;;;;4993741;28;20281;-91
2022/12/26 14:08:10;;;;;;;24.13;1.73;;;;;;;;;;4985199;28;20035;-90
2022/12/26 14:10:53;;;;;;;14.38;2.40;;;;;;;;;;4998150;28;20388;-91
2022/12/26 14:13:19;;;;;;;10.20;2.28;;;;;;;;;;5001411;28;20041;-91
2022/12/26 14:15:53;;;;;;;15.02;1.83;;;;;;;;;;5003145;28;20026;-91
2022/12/26 14:18:31;;;;;;;5.65;1.90;;;;;;;;;;5006781;28;20034;-91
2022/12/26 14:21:16;;;;;;;11.20;1.88;;;;;;;;;;4999512;28;20030;-90
2022/12/26 14:23:44;;;;;;;16.70;2.53;;;;;;;;;;4973050;28;20026;-90
2022/12/26 14:26:19;;;;;;;21.08;3.47;;;;;;;;;;5001343;28;20614;-90
2022/12/26 14:29:00;;;;;;;16.17;2.05;;;;;;;;;;4994416;28;20495;-90
2022/12/26 14:31:36;;;;;;;10.63;2.13;;;;;;;;;;4990543;28;20410;-91
2022/12/26 14:34:20;;;;;;;12.02;2.30;;;;;;;;;;5005053;28;20023;-91
2022/12/26 14:37:14;;;;;;;10.70;2.00;;;;;;;;;;4999655;28;20329;-91
2022/12/26 14:39:42;;;;;;;16.77;2.00;;;;;;;;;;5007968;28;20033;-91
2022/12/26 14:45:00;;;;;;;9.55;1.67;;;;;;;;;;5001220;28;20052;-90
2022/12/26 14:47:42;;;;;;;15.15;2.20;;;;;;;;;;4995311;28;20567;-90
2022/12/26 14:50:27;;;;;;;16.38;2.05;;;;;;;;;;4984617;28;20406;-90
2022/12/26 14:52:53;;;;;;;12.98;2.80;;;;;;;;;;4991105;28;20568;-90
2022/12/26 14:55:38;;;;;;;15.18;2.20;;;;;;;;;;4973545;28;20582;-90
2022/12/26 14:58:22;;;;;;;17.92;2.35;;;;;;;;;;5001383;28;20030;-91
2022/12/26 15:00:49;;;;;;;14.77;2.42;;;;;;;;;;4992623;28;20505;-91
2022/12/26 15:03:32;;;;;;;23.10;2.13;;;;;;;;;;4975353;28;20390;-90
2022/12/26 15:06:19;;;;;;;25.60;4.20;;;;;;;;;;5004688;28;20189;-91
2022/12/26 15:09:00;;;;;;;9.85;1.60;;;;;;;;;;4971973;28;20125;-90
2022/12/26 15:11:35;;;;;;;12.73;2.45;;;;;;;;;;4988767;28;20544;-90
2022/12/26 15:14:10;;;;;;;26.38;2.83;;;;;;;;;;5003037;28;20028;-91
2022/12/26 15:16:36;;;;;;;11.38;2.15;;;;;;;;;;4986682;28;20519;-90
2022/12/26 15:19:21;;;;;;;6.55;1.85;;;;;;;;;;5002855;28;20034;-91
2022/12/26 15:21:56;;;;;;;8.85;1.85;;;;;;;;;;4984944;28;20494;-90
2022/12/26 15:24:25;;;;;;;20.95;3.55;;;;;;;;;;5000743;28;20037;-91
2022/12/26 15:27:00;;;;;;;8.38;2.08;;;;;;;;;;5002386;28;20053;-90
2022/12/26 15:29:35;;;;;;;21.23;3.08;;;;;;;;;;4989091;28;20029;-91
2022/12/26 15:32:02;;;;;;;17.38;2.53;;;;;;;;;;5003143;28;20630;-90
2022/12/26 15:34:43;;;;;;;9.95;1.45;;;;;;;;;;5003806;28;20021;-90
2022/12/26 15:37:24;;;;;;;18.77;3.92;;;;;;;;;;5001939;28;20096;-90
2022/12/26 15:40:10;;;;;;;17.63;1.50;;;;;;;;;;5002507;28;20035;-91
2022/12/26 15:42:48;;;;;;;16.47;2.27;;;;;;;;;;4988122;28;20033;-91
2022/12/26 15:45:20;;;;;;;8.25;1.90;;;;;;;;;;4999911;28;20408;-91
2022/12/26 15:47:56;;;;;;;18.00;2.30;;;;;;;;;;4986702;28;20042;-90
2022/12/26 15:50:28;;;;;;;23.15;2.70;;;;;;;;;;5002992;28;20068;-90
2022/12/26 15:52:57;;;;;;;4.70;1.85;;;;;;;;;;4988051;28;20452;-90
2022/12/26 15:55:32;;;;;;;9.35;1.52;;;;;;;;;;5000926;28;20092;-91
2022/12/26 15:58:14;;;;;;;9.93;1.73;;;;;;;;;;5002936;28;20060;-91
2022/12/26 16:00:55;;;;;;;5.13;1.30;;;;;;;;;;4991873;28;20041;-91
2022/12/26 16:03:40;;;;;;;11.75;2.13;;;;;;;;;;4995800;28;20547;-90
2022/12/26 16:06:25;;;;;;;12.23;1.85;;;;;;;;;;4997422;28;20469;-90
2022/12/26 16:09:10;;;;;;;10.27;1.50;;;;;;;;;;5000307;28;20115;-91
2022/12/26 16:11:49;;;;;;;25.85;2.13;;;;;;;;;;4998162;28;20029;-90
2022/12/26 16:14:32;;;;;;;9.13;3.15;;;;;;;;;;5005224;28;20037;-90
2022/12/26 16:17:10;;;;;;;11.15;2.42;;;;;;;;;;4986356;28;20088;-91
2022/12/26 16:19:36;;;;;;;4.10;1.15;;;;;;;;;;4992906;28;20033;-90
2022/12/26 16:24:50;;;;;;;13.95;2.30;;;;;;;;;;5007352;28;20488;-91
2022/12/26 16:27:24;;;;;;;9.27;2.17;;;;;;;;;;4974775;28;20033;-90
2022/12/26 16:30:03;;;;;;;9.55;1.33;;;;;;;;;;5001719;28;20065;-90
2022/12/26 16:32:34;;;;;;;21.85;3.17;;;;;;;;;;4988710;28;20966;-90
2022/12/26 16:35:00;;;;;;;27.88;3.75;;;;;;;;;;4988001;28;20077;-90
2022/12/26 16:37:26;;;;;;;24.42;2.53;;;;;;;;;;4974855;28;20033;-90
2022/12/26 16:40:08;;;;;;;4.88;1.65;;;;;;;;;;4975375;28;20092;-91
2022/12/26 16:42:34;;;;;;;10.80;1.75;;;;;;;;;;5006533;28;20584;-91
2022/12/26 16:45:00;;;;;;;9.02;1.70;;;;;;;;;;4971265;28;20037;-90
2022/12/26 16:47:28;;;;;;;13.07;1.38;;;;;;;;;;4970401;28;20030;-91
2022/12/26 16:49:54;;;;;;;17.63;2.15;;;;;;;;;;4996995;28;20110;-90
2022/12/26 16:52:30;;;;;;;21.02;2.30;;;;;;;;;;4973327;28;20558;-90
2022/12/26 16:54:56;;;;;;;10.75;3.08;;;;;;;;;;4990946;28;20045;-90
2022/12/26 16:57:23;;;;;;;4.85;1.67;;;;;;;;;;4965336;28;20482;-90
2022/12/26 16:59:56;;;;;;;8.77;1.02;;;;;;;;;;4988418;28;20116;-90
2022/12/26 17:02:25;;;;;;;17.80;2.15;;;;;;;;;;4997919;28;20236;-90
2022/12/26 17:04:53;;;;;;;7.28;2.08;;;;;;;;;;4992905;28;20400;-90
2022/12/26 17:07:19;;;;;;;22.98;2.38;;;;;;;;;;4994400;28;20478;-90
2022/12/26 17:09:48;;;;;;;12.85;2.78;;;;;;;;;;5003420;28;20026;-91
2022/12/26 17:12:47;;;;;;;7.50;1.38;;;;;;;;;;4992649;28;20425;-91